sensor_id;sensor_type;location;lat;lon;timestamp;pressure;altitude;pressure_sealevel;temperature;humidity
24336;BME280;33098;52.400;16.880;2023-08-12T00:01:43;101346.89;;;17.06;82.44
24336;BME280;33098;52.400;16.880;2023-08-12T00:04:12;101347.48;;;16.99;82.57
24336;BME280;33098;52.400;16.880;2023-08-12T00:06:43;101347.91;;;16.95;82.69
24336;BME280;33098;52.400;16.880;2023-08-12T00:09:12;101339.56;;;16.98;83.06
24336;BME280;33098;52.400;16.880;2023-08-12T00:11:44;101332.14;;;17.00;82.97
24336;BME280;33098;52.400;16.880;2023-08-12T00:14:33;101326.58;;;16.99;82.99
24336;BME280;33098;52.400;16.880;2023-08-12T00:17:02;101328.54;;;16.95;82.99
24336;BME280;33098;52.400;16.880;2023-08-12T00:19:31;101323.77;;;16.94;83.09
24336;BME280;33098;52.400;16.880;2023-08-12T00:21:59;101321.21;;;16.96;83.30
24336;BME280;33098;52.400;16.880;2023-08-12T00:24:27;101322.38;;;16.96;83.30
24336;BME280;33098;52.400;16.880;2023-08-12T00:26:56;101323.42;;;16.96;83.39
24336;BME280;33098;52.400;16.880;2023-08-12T00:29:24;101325.48;;;16.99;83.47
24336;BME280;33098;52.400;16.880;2023-08-12T00:31:51;101323.31;;;16.97;83.40
24336;BME280;33098;52.400;16.880;2023-08-12T00:34:19;101320.85;;;16.95;83.56
24336;BME280;33098;52.400;16.880;2023-08-12T00:36:58;101318.92;;;16.92;83.68
24336;BME280;33098;52.400;16.880;2023-08-12T00:39:28;101319.00;;;16.89;83.83
24336;BME280;33098;52.400;16.880;2023-08-12T00:42:01;101315.43;;;16.85;83.97
24336;BME280;33098;52.400;16.880;2023-08-12T00:44:30;101313.42;;;16.85;84.16
24336;BME280;33098;52.400;16.880;2023-08-12T00:47:00;101309.58;;;16.82;84.21
24336;BME280;33098;52.400;16.880;2023-08-12T00:49:34;101311.84;;;16.81;84.36
24336;BME280;33098;52.400;16.880;2023-08-12T00:52:06;101311.98;;;16.83;84.60
24336;BME280;33098;52.400;16.880;2023-08-12T00:54:34;101314.91;;;16.87;84.54
24336;BME280;33098;52.400;16.880;2023-08-12T00:57:03;101315.55;;;16.88;84.66
24336;BME280;33098;52.400;16.880;2023-08-12T00:59:34;101310.55;;;16.83;84.72
24336;BME280;33098;52.400;16.880;2023-08-12T01:02:07;101309.48;;;16.81;84.92
24336;BME280;33098;52.400;16.880;2023-08-12T01:04:39;101304.45;;;16.81;85.11
24336;BME280;33098;52.400;16.880;2023-08-12T01:07:07;101304.55;;;16.82;85.23
24336;BME280;33098;52.400;16.880;2023-08-12T01:09:38;101306.58;;;16.81;85.26
24336;BME280;33098;52.400;16.880;2023-08-12T01:12:13;101308.61;;;16.77;85.19
24336;BME280;33098;52.400;16.880;2023-08-12T01:17:54;101312.56;;;16.79;85.51
24336;BME280;33098;52.400;16.880;2023-08-12T01:20:25;101320.09;;;16.75;85.24
24336;BME280;33098;52.400;16.880;2023-08-12T01:25:44;101309.30;;;16.73;85.50
24336;BME280;33098;52.400;16.880;2023-08-12T01:28:29;101312.29;;;16.68;85.54
24336;BME280;33098;52.400;16.880;2023-08-12T01:31:11;101307.98;;;16.66;85.66
24336;BME280;33098;52.400;16.880;2023-08-12T01:33:55;101306.84;;;16.69;85.89
24336;BME280;33098;52.400;16.880;2023-08-12T01:36:30;101303.63;;;16.71;85.93
24336;BME280;33098;52.400;16.880;2023-08-12T01:39:01;101302.80;;;16.70;85.89
24336;BME280;33098;52.400;16.880;2023-08-12T01:41:30;101305.09;;;16.69;85.86
24336;BME280;33098;52.400;16.880;2023-08-12T01:44:02;101306.50;;;16.65;85.88
24336;BME280;33098;52.400;16.880;2023-08-12T01:46:34;101299.79;;;16.62;86.04
24336;BME280;33098;52.400;16.880;2023-08-12T01:49:05;101296.55;;;16.58;86.05
24336;BME280;33098;52.400;16.880;2023-08-12T01:51:33;101293.45;;;16.59;86.43
24336;BME280;33098;52.400;16.880;2023-08-12T01:54:02;101287.61;;;16.62;86.44
24336;BME280;33098;52.400;16.880;2023-08-12T01:56:30;101288.25;;;16.61;86.52
24336;BME280;33098;52.400;16.880;2023-08-12T01:59:00;101282.48;;;16.59;86.61
24336;BME280;33098;52.400;16.880;2023-08-12T02:01:34;101284.34;;;16.62;86.65
24336;BME280;33098;52.400;16.880;2023-08-12T02:04:03;101286.91;;;16.61;86.68
24336;BME280;33098;52.400;16.880;2023-08-12T02:06:33;101285.34;;;16.61;86.64
24336;BME280;33098;52.400;16.880;2023-08-12T02:09:01;101285.44;;;16.60;86.67
24336;BME280;33098;52.400;16.880;2023-08-12T02:11:31;101280.15;;;16.59;86.72
24336;BME280;33098;52.400;16.880;2023-08-12T02:13:58;101284.19;;;16.56;86.60
24336;BME280;33098;52.400;16.880;2023-08-12T02:16:31;101285.52;;;16.53;86.71
24336;BME280;33098;52.400;16.880;2023-08-12T02:18:59;101283.47;;;16.49;86.78
24336;BME280;33098;52.400;16.880;2023-08-12T02:21:28;101281.33;;;16.48;86.91
24336;BME280;33098;52.400;16.880;2023-08-12T02:23:59;101282.06;;;16.49;87.18
24336;BME280;33098;52.400;16.880;2023-08-12T02:26:32;101282.52;;;16.50;87.01
24336;BME280;33098;52.400;16.880;2023-08-12T02:29:06;101284.33;;;16.48;87.02
24336;BME280;33098;52.400;16.880;2023-08-12T02:31:36;101284.30;;;16.44;87.10
24336;BME280;33098;52.400;16.880;2023-08-12T02:34:07;101276.08;;;16.36;87.14
24336;BME280;33098;52.400;16.880;2023-08-12T02:36:40;101275.56;;;16.32;87.44
24336;BME280;33098;52.400;16.880;2023-08-12T02:39:09;101272.96;;;16.33;87.67
24336;BME280;33098;52.400;16.880;2023-08-12T02:41:38;101275.23;;;16.36;87.88
24336;BME280;33098;52.400;16.880;2023-08-12T02:44:06;101272.90;;;16.36;87.89
24336;BME280;33098;52.400;16.880;2023-08-12T02:46:34;101273.09;;;16.32;87.83
24336;BME280;33098;52.400;16.880;2023-08-12T02:49:03;101275.58;;;16.30;88.13
24336;BME280;33098;52.400;16.880;2023-08-12T02:51:33;101276.25;;;16.28;87.97
24336;BME280;33098;52.400;16.880;2023-08-12T02:54:02;101276.50;;;16.26;88.12
24336;BME280;33098;52.400;16.880;2023-08-12T02:56:30;101276.58;;;16.21;88.20
24336;BME280;33098;52.400;16.880;2023-08-12T02:59:01;101282.73;;;16.16;88.21
24336;BME280;33098;52.400;16.880;2023-08-12T03:01:30;101279.52;;;16.12;88.36
24336;BME280;33098;52.400;16.880;2023-08-12T03:04:01;101281.59;;;16.08;88.55
24336;BME280;33098;52.400;16.880;2023-08-12T03:06:31;101286.33;;;16.08;88.81
24336;BME280;33098;52.400;16.880;2023-08-12T03:09:02;101283.27;;;16.08;88.95
24336;BME280;33098;52.400;16.880;2023-08-12T03:11:39;101279.31;;;16.06;89.16
24336;BME280;33098;52.400;16.880;2023-08-12T03:14:12;101281.14;;;16.07;89.28
24336;BME280;33098;52.400;16.880;2023-08-12T03:16:42;101282.22;;;16.07;89.33
24336;BME280;33098;52.400;16.880;2023-08-12T03:19:13;101283.23;;;16.08;89.48
24336;BME280;33098;52.400;16.880;2023-08-12T03:21:45;101284.83;;;16.09;89.61
24336;BME280;33098;52.400;16.880;2023-08-12T03:24:15;101283.90;;;16.09;89.51
24336;BME280;33098;52.400;16.880;2023-08-12T03:26:44;101282.39;;;16.06;89.60
24336;BME280;33098;52.400;16.880;2023-08-12T03:29:19;101279.71;;;16.03;89.73
24336;BME280;33098;52.400;16.880;2023-08-12T03:31:54;101281.05;;;16.05;89.87
24336;BME280;33098;52.400;16.880;2023-08-12T03:34:48;101277.17;;;16.04;89.97
24336;BME280;33098;52.400;16.880;2023-08-12T03:37:17;101282.59;;;16.07;90.18
24336;BME280;33098;52.400;16.880;2023-08-12T03:39:45;101285.73;;;16.10;90.17
24336;BME280;33098;52.400;16.880;2023-08-12T03:42:14;101289.02;;;16.10;89.99
24336;BME280;33098;52.400;16.880;2023-08-12T03:44:50;101282.10;;;16.05;89.86
24336;BME280;33098;52.400;16.880;2023-08-12T03:47:25;101284.58;;;16.03;90.06
24336;BME280;33098;52.400;16.880;2023-08-12T03:49:56;101283.41;;;16.00;90.10
24336;BME280;33098;52.400;16.880;2023-08-12T03:52:27;101284.98;;;16.00;90.28
24336;BME280;33098;52.400;16.880;2023-08-12T03:54:57;101285.30;;;16.03;90.48
24336;BME280;33098;52.400;16.880;2023-08-12T03:57:28;101283.59;;;16.04;90.56
24336;BME280;33098;52.400;16.880;2023-08-12T03:59:59;101283.77;;;16.02;90.37
24336;BME280;33098;52.400;16.880;2023-08-12T04:02:31;101286.02;;;16.01;90.42
24336;BME280;33098;52.400;16.880;2023-08-12T04:05:02;101289.52;;;16.04;90.64
24336;BME280;33098;52.400;16.880;2023-08-12T04:07:35;101289.30;;;16.06;90.70
24336;BME280;33098;52.400;16.880;2023-08-12T04:10:10;101285.31;;;16.03;90.62
24336;BME280;33098;52.400;16.880;2023-08-12T04:12:46;101286.02;;;16.03;90.68
24336;BME280;33098;52.400;16.880;2023-08-12T04:15:24;101284.34;;;16.02;90.89
24336;BME280;33098;52.400;16.880;2023-08-12T04:17:56;101281.80;;;16.02;90.90
24336;BME280;33098;52.400;16.880;2023-08-12T04:20:25;101280.44;;;16.01;90.92
24336;BME280;33098;52.400;16.880;2023-08-12T04:23:01;101280.13;;;16.07;91.20
24336;BME280;33098;52.400;16.880;2023-08-12T04:25:34;101281.66;;;16.12;91.27
24336;BME280;33098;52.400;16.880;2023-08-12T04:28:19;101287.14;;;16.16;91.32
24336;BME280;33098;52.400;16.880;2023-08-12T04:30:55;101286.16;;;16.22;91.35
24336;BME280;33098;52.400;16.880;2023-08-12T04:33:29;101289.54;;;16.24;91.25
24336;BME280;33098;52.400;16.880;2023-08-12T04:36:17;101293.25;;;16.28;91.40
24336;BME280;33098;52.400;16.880;2023-08-12T04:38:50;101298.58;;;16.27;91.21
24336;BME280;33098;52.400;16.880;2023-08-12T04:41:24;101295.29;;;16.28;91.31
24336;BME280;33098;52.400;16.880;2023-08-12T04:44:17;101292.31;;;16.29;91.29
24336;BME280;33098;52.400;16.880;2023-08-12T04:46:48;101295.58;;;16.31;91.38
24336;BME280;33098;52.400;16.880;2023-08-12T04:49:28;101292.41;;;16.32;91.47
24336;BME280;33098;52.400;16.880;2023-08-12T04:52:08;101290.34;;;16.35;91.52
24336;BME280;33098;52.400;16.880;2023-08-12T04:54:39;101288.60;;;16.38;91.55
24336;BME280;33098;52.400;16.880;2023-08-12T04:57:11;101288.91;;;16.47;91.75
24336;BME280;33098;52.400;16.880;2023-08-12T04:59:41;101286.65;;;16.54;91.64
24336;BME280;33098;52.400;16.880;2023-08-12T05:02:22;101280.95;;;16.58;91.53
24336;BME280;33098;52.400;16.880;2023-08-12T05:05:13;101275.20;;;16.70;91.80
24336;BME280;33098;52.400;16.880;2023-08-12T05:07:55;101271.76;;;16.82;91.58
24336;BME280;33098;52.400;16.880;2023-08-12T05:10:25;101270.89;;;16.92;91.35
24336;BME280;33098;52.400;16.880;2023-08-12T05:12:57;101267.05;;;17.01;91.20
24336;BME280;33098;52.400;16.880;2023-08-12T05:15:30;101265.10;;;17.08;90.70
24336;BME280;33098;52.400;16.880;2023-08-12T05:17:58;101263.41;;;17.14;90.33
24336;BME280;33098;52.400;16.880;2023-08-12T05:20:26;101261.18;;;17.23;90.00
24336;BME280;33098;52.400;16.880;2023-08-12T05:22:58;101261.82;;;17.34;89.75
24336;BME280;33098;52.400;16.880;2023-08-12T05:25:26;101256.81;;;17.45;89.30
24336;BME280;33098;52.400;16.880;2023-08-12T05:27:55;101251.19;;;17.55;88.82
24336;BME280;33098;52.400;16.880;2023-08-12T05:30:28;101252.89;;;17.62;88.25
24336;BME280;33098;52.400;16.880;2023-08-12T05:36:03;101252.52;;;17.76;87.42
24336;BME280;33098;52.400;16.880;2023-08-12T05:38:43;101249.40;;;17.85;87.28
24336;BME280;33098;52.400;16.880;2023-08-12T05:41:13;101254.67;;;17.92;86.70
24336;BME280;33098;52.400;16.880;2023-08-12T05:43:48;101257.08;;;17.99;86.27
24336;BME280;33098;52.400;16.880;2023-08-12T05:46:17;101258.70;;;18.02;85.73
24336;BME280;33098;52.400;16.880;2023-08-12T05:48:45;101254.36;;;18.08;85.24
24336;BME280;33098;52.400;16.880;2023-08-12T05:51:21;101248.73;;;18.14;85.09
24336;BME280;33098;52.400;16.880;2023-08-12T05:53:52;101243.27;;;18.28;85.20
24336;BME280;33098;52.400;16.880;2023-08-12T05:56:22;101235.30;;;18.38;84.75
24336;BME280;33098;52.400;16.880;2023-08-12T05:58:54;101233.20;;;18.48;84.32
24336;BME280;33098;52.400;16.880;2023-08-12T06:01:28;101230.60;;;18.56;83.89
24336;BME280;33098;52.400;16.880;2023-08-12T06:03:58;101224.66;;;18.62;83.49
24336;BME280;33098;52.400;16.880;2023-08-12T06:06:28;101224.44;;;18.69;83.23
24336;BME280;33098;52.400;16.880;2023-08-12T06:08:57;101223.74;;;18.74;82.71
24336;BME280;33098;52.400;16.880;2023-08-12T06:11:24;101225.92;;;18.80;82.55
24336;BME280;33098;52.400;16.880;2023-08-12T06:13:55;101227.47;;;18.89;82.60
24336;BME280;33098;52.400;16.880;2023-08-12T06:16:27;101226.72;;;18.95;82.10
24336;BME280;33098;52.400;16.880;2023-08-12T06:18:56;101228.80;;;19.01;81.70
24336;BME280;33098;52.400;16.880;2023-08-12T06:21:29;101230.49;;;19.09;81.53
24336;BME280;33098;52.400;16.880;2023-08-12T06:24:01;101227.96;;;19.20;81.52
24336;BME280;33098;52.400;16.880;2023-08-12T06:26:39;101228.45;;;19.31;81.55
24336;BME280;33098;52.400;16.880;2023-08-12T06:29:11;101227.42;;;19.41;81.26
24336;BME280;33098;52.400;16.880;2023-08-12T06:31:43;101232.16;;;19.49;80.95
24336;BME280;33098;52.400;16.880;2023-08-12T06:34:16;101232.95;;;19.52;80.51
24336;BME280;33098;52.400;16.880;2023-08-12T06:36:45;101230.73;;;19.56;80.27
24336;BME280;33098;52.400;16.880;2023-08-12T06:39:14;101229.46;;;19.63;79.97
24336;BME280;33098;52.400;16.880;2023-08-12T06:41:42;101223.77;;;19.64;79.48
24336;BME280;33098;52.400;16.880;2023-08-12T06:44:12;101222.44;;;19.68;79.55
24336;BME280;33098;52.400;16.880;2023-08-12T06:46:43;101218.69;;;19.76;79.42
24336;BME280;33098;52.400;16.880;2023-08-12T06:49:24;101216.11;;;19.84;79.40
24336;BME280;33098;52.400;16.880;2023-08-12T06:51:53;101214.56;;;19.95;79.43
24336;BME280;33098;52.400;16.880;2023-08-12T06:54:24;101211.23;;;20.05;79.26
24336;BME280;33098;52.400;16.880;2023-08-12T06:56:53;101211.45;;;20.15;79.04
24336;BME280;33098;52.400;16.880;2023-08-12T06:59:28;101209.44;;;20.25;78.63
24336;BME280;33098;52.400;16.880;2023-08-12T07:02:00;101209.99;;;20.35;78.46
24336;BME280;33098;52.400;16.880;2023-08-12T07:04:31;101206.88;;;20.44;78.20
24336;BME280;33098;52.400;16.880;2023-08-12T07:07:01;101205.39;;;20.53;77.84
24336;BME280;33098;52.400;16.880;2023-08-12T07:09:34;101208.34;;;20.60;77.57
24336;BME280;33098;52.400;16.880;2023-08-12T07:12:11;101208.51;;;20.65;77.32
24336;BME280;33098;52.400;16.880;2023-08-12T07:14:57;101211.88;;;20.71;76.84
24336;BME280;33098;52.400;16.880;2023-08-12T07:17:29;101212.20;;;20.82;76.96
24336;BME280;33098;52.400;16.880;2023-08-12T07:20:01;101208.17;;;20.92;76.61
24336;BME280;33098;52.400;16.880;2023-08-12T07:22:32;101206.91;;;20.98;76.13
24336;BME280;33098;52.400;16.880;2023-08-12T07:24:59;101204.37;;;21.03;75.86
24336;BME280;33098;52.400;16.880;2023-08-12T07:27:27;101198.13;;;21.09;75.76
24336;BME280;33098;52.400;16.880;2023-08-12T07:29:54;101194.23;;;21.15;75.68
24336;BME280;33098;52.400;16.880;2023-08-12T07:32:21;101186.81;;;21.17;75.20
24336;BME280;33098;52.400;16.880;2023-08-12T07:34:53;101185.06;;;21.21;75.31
24336;BME280;33098;52.400;16.880;2023-08-12T07:37:20;101188.00;;;21.24;74.89
24336;BME280;33098;52.400;16.880;2023-08-12T07:39:49;101187.76;;;21.26;74.68
24336;BME280;33098;52.400;16.880;2023-08-12T07:42:19;101188.70;;;21.32;74.77
24336;BME280;33098;52.400;16.880;2023-08-12T07:44:49;101191.23;;;21.40;74.98
24336;BME280;33098;52.400;16.880;2023-08-12T07:47:20;101191.16;;;21.47;74.90
24336;BME280;33098;52.400;16.880;2023-08-12T07:49:46;101191.83;;;21.54;74.65
24336;BME280;33098;52.400;16.880;2023-08-12T07:52:20;101194.06;;;21.63;74.08
24336;BME280;33098;52.400;16.880;2023-08-12T07:54:50;101193.26;;;21.74;74.05
24336;BME280;33098;52.400;16.880;2023-08-12T07:57:22;101193.14;;;21.84;73.90
24336;BME280;33098;52.400;16.880;2023-08-12T07:59:51;101192.85;;;21.94;73.58
24336;BME280;33098;52.400;16.880;2023-08-12T08:02:28;101191.91;;;22.04;73.25
24336;BME280;33098;52.400;16.880;2023-08-12T08:04:59;101186.61;;;22.14;73.20
24336;BME280;33098;52.400;16.880;2023-08-12T08:07:26;101186.02;;;22.25;73.06
24336;BME280;33098;52.400;16.880;2023-08-12T08:09:53;101183.36;;;22.34;72.87
24336;BME280;33098;52.400;16.880;2023-08-12T08:12:22;101184.14;;;22.42;72.31
24336;BME280;33098;52.400;16.880;2023-08-12T08:14:51;101186.65;;;22.47;72.36
24336;BME280;33098;52.400;16.880;2023-08-12T08:17:19;101188.10;;;22.51;72.20
24336;BME280;33098;52.400;16.880;2023-08-12T08:19:47;101188.41;;;22.55;71.49
24336;BME280;33098;52.400;16.880;2023-08-12T08:22:14;101187.45;;;22.58;71.30
24336;BME280;33098;52.400;16.880;2023-08-12T08:24:42;101190.40;;;22.64;71.16
24336;BME280;33098;52.400;16.880;2023-08-12T08:27:11;101188.80;;;22.70;70.99
24336;BME280;33098;52.400;16.880;2023-08-12T08:29:37;101188.44;;;22.76;70.79
24336;BME280;33098;52.400;16.880;2023-08-12T08:32:07;101185.24;;;22.80;69.19
24336;BME280;33098;52.400;16.880;2023-08-12T08:34:36;101178.59;;;22.87;69.05
24336;BME280;33098;52.400;16.880;2023-08-12T08:37:05;101175.14;;;22.93;69.18
24336;BME280;33098;52.400;16.880;2023-08-12T08:39:32;101173.98;;;22.98;68.95
24336;BME280;33098;52.400;16.880;2023-08-12T08:41:59;101178.48;;;23.05;68.53
24336;BME280;33098;52.400;16.880;2023-08-12T08:44:29;101177.95;;;23.08;67.88
24336;BME280;33098;52.400;16.880;2023-08-12T08:47:01;101179.46;;;23.12;67.42
24336;BME280;33098;52.400;16.880;2023-08-12T08:49:28;101176.80;;;23.19;67.15
24336;BME280;33098;52.400;16.880;2023-08-12T08:51:59;101172.88;;;23.27;66.86
24336;BME280;33098;52.400;16.880;2023-08-12T08:54:27;101164.15;;;23.31;66.88
24336;BME280;33098;52.400;16.880;2023-08-12T08:56:58;101165.12;;;23.35;66.77
24336;BME280;33098;52.400;16.880;2023-08-12T08:59:25;101164.08;;;23.41;66.54
24336;BME280;33098;52.400;16.880;2023-08-12T09:01:56;101165.66;;;23.47;66.42
24336;BME280;33098;52.400;16.880;2023-08-12T09:04:25;101160.27;;;23.54;66.35
24336;BME280;33098;52.400;16.880;2023-08-12T09:06:56;101156.85;;;23.58;66.03
24336;BME280;33098;52.400;16.880;2023-08-12T09:09:24;101153.35;;;23.61;65.96
24336;BME280;33098;52.400;16.880;2023-08-12T09:11:52;101155.61;;;23.68;65.84
24336;BME280;33098;52.400;16.880;2023-08-12T09:14:21;101157.42;;;23.74;65.55
24336;BME280;33098;52.400;16.880;2023-08-12T09:16:48;101162.09;;;23.82;65.50
24336;BME280;33098;52.400;16.880;2023-08-12T09:19:16;101158.83;;;23.92;65.32
24336;BME280;33098;52.400;16.880;2023-08-12T09:21:43;101158.25;;;24.03;64.62
24336;BME280;33098;52.400;16.880;2023-08-12T09:24:09;101154.39;;;24.11;63.61
24336;BME280;33098;52.400;16.880;2023-08-12T09:26:36;101155.27;;;24.26;63.91
24336;BME280;33098;52.400;16.880;2023-08-12T09:29:03;101150.23;;;24.37;63.36
24336;BME280;33098;52.400;16.880;2023-08-12T09:31:30;101145.61;;;24.33;63.23
24336;BME280;33098;52.400;16.880;2023-08-12T09:34:00;101149.20;;;24.27;63.13
24336;BME280;33098;52.400;16.880;2023-08-12T09:36:33;101144.91;;;24.24;62.12
24336;BME280;33098;52.400;16.880;2023-08-12T09:39:06;101142.71;;;24.27;61.99
24336;BME280;33098;52.400;16.880;2023-08-12T09:41:33;101134.08;;;24.30;61.97
24336;BME280;33098;52.400;16.880;2023-08-12T09:44:01;101132.38;;;24.31;62.17
24336;BME280;33098;52.400;16.880;2023-08-12T09:46:32;101126.08;;;24.34;62.19
24336;BME280;33098;52.400;16.880;2023-08-12T09:49:02;101124.53;;;24.40;61.89
24336;BME280;33098;52.400;16.880;2023-08-12T09:51:35;101120.49;;;24.46;61.51
24336;BME280;33098;52.400;16.880;2023-08-12T09:54:03;101114.98;;;24.58;60.87
24336;BME280;33098;52.400;16.880;2023-08-12T09:56:36;101110.43;;;24.73;59.68
24336;BME280;33098;52.400;16.880;2023-08-12T09:59:05;101108.71;;;24.79;60.34
24336;BME280;33098;52.400;16.880;2023-08-12T10:01:33;101109.97;;;24.86;60.45
24336;BME280;33098;52.400;16.880;2023-08-12T10:04:06;101106.02;;;24.97;60.08
24336;BME280;33098;52.400;16.880;2023-08-12T10:06:35;101106.92;;;25.02;59.95
24336;BME280;33098;52.400;16.880;2023-08-12T10:09:06;101097.53;;;25.01;59.88
24336;BME280;33098;52.400;16.880;2023-08-12T10:11:38;101099.77;;;25.13;59.90
24336;BME280;33098;52.400;16.880;2023-08-12T10:14:06;101091.19;;;25.23;59.68
24336;BME280;33098;52.400;16.880;2023-08-12T10:16:35;101093.54;;;25.39;59.28
24336;BME280;33098;52.400;16.880;2023-08-12T10:19:04;101089.77;;;25.59;58.47
24336;BME280;33098;52.400;16.880;2023-08-12T10:21:32;101093.09;;;25.76;58.63
24336;BME280;33098;52.400;16.880;2023-08-12T10:23:59;101091.56;;;25.91;58.31
24336;BME280;33098;52.400;16.880;2023-08-12T10:26:29;101086.47;;;26.10;57.77
24336;BME280;33098;52.400;16.880;2023-08-12T10:28:56;101085.77;;;26.26;57.67
24336;BME280;33098;52.400;16.880;2023-08-12T10:31:30;101090.71;;;26.38;56.95
24336;BME280;33098;52.400;16.880;2023-08-12T10:33:57;101083.83;;;26.50;56.87
24336;BME280;33098;52.400;16.880;2023-08-12T10:36:28;101079.33;;;26.58;55.44
24336;BME280;33098;52.400;16.880;2023-08-12T10:38:56;101077.42;;;26.71;55.07
24336;BME280;33098;52.400;16.880;2023-08-12T10:41:26;101080.98;;;26.88;54.92
24336;BME280;33098;52.400;16.880;2023-08-12T10:43:59;101075.08;;;26.99;54.70
24336;BME280;33098;52.400;16.880;2023-08-12T10:49:09;101070.77;;;27.01;54.55
24336;BME280;33098;52.400;16.880;2023-08-12T10:51:41;101073.08;;;27.13;54.36
24336;BME280;33098;52.400;16.880;2023-08-12T10:54:28;101065.86;;;27.35;53.95
24336;BME280;33098;52.400;16.880;2023-08-12T10:59:51;101062.66;;;27.46;53.15
24336;BME280;33098;52.400;16.880;2023-08-12T11:02:25;101066.02;;;27.70;53.18
24336;BME280;33098;52.400;16.880;2023-08-12T11:04:55;101063.44;;;27.79;52.64
24336;BME280;33098;52.400;16.880;2023-08-12T11:07:43;101062.35;;;27.79;52.17
24336;BME280;33098;52.400;16.880;2023-08-12T11:10:19;101060.28;;;27.81;51.87
24336;BME280;33098;52.400;16.880;2023-08-12T11:12:56;101059.30;;;27.82;51.45
24336;BME280;33098;52.400;16.880;2023-08-12T11:15:41;101056.80;;;27.85;50.98
24336;BME280;33098;52.400;16.880;2023-08-12T11:18:19;101047.70;;;28.00;51.13
24336;BME280;33098;52.400;16.880;2023-08-12T11:20:48;101047.52;;;28.06;50.77
24336;BME280;33098;52.400;16.880;2023-08-12T11:23:16;101043.83;;;28.11;50.88
24336;BME280;33098;52.400;16.880;2023-08-12T11:25:44;101042.67;;;28.24;50.51
24336;BME280;33098;52.400;16.880;2023-08-12T11:28:17;101039.95;;;28.32;49.84
24336;BME280;33098;52.400;16.880;2023-08-12T11:30:46;101041.97;;;28.34;49.87
24336;BME280;33098;52.400;16.880;2023-08-12T11:33:16;101033.54;;;28.29;50.15
24336;BME280;33098;52.400;16.880;2023-08-12T11:35:45;101035.54;;;28.36;50.09
24336;BME280;33098;52.400;16.880;2023-08-12T11:38:12;101035.76;;;28.39;49.66
24336;BME280;33098;52.400;16.880;2023-08-12T11:40:40;101030.59;;;28.55;49.92
24336;BME280;33098;52.400;16.880;2023-08-12T11:43:07;101031.06;;;28.67;49.21
24336;BME280;33098;52.400;16.880;2023-08-12T11:45:35;101030.54;;;28.86;49.01
24336;BME280;33098;52.400;16.880;2023-08-12T11:48:04;101029.48;;;29.14;48.81
24336;BME280;33098;52.400;16.880;2023-08-12T11:50:31;101029.14;;;29.29;48.35
24336;BME280;33098;52.400;16.880;2023-08-12T11:53:04;101023.94;;;29.42;47.30
24336;BME280;33098;52.400;16.880;2023-08-12T11:55:31;101027.02;;;29.43;47.31
24336;BME280;33098;52.400;16.880;2023-08-12T11:57:58;101024.06;;;29.37;47.01
24336;BME280;33098;52.400;16.880;2023-08-12T12:00:25;101019.75;;;29.40;46.50
24336;BME280;33098;52.400;16.880;2023-08-12T12:02:55;101020.08;;;29.44;46.69
24336;BME280;33098;52.400;16.880;2023-08-12T12:05:26;101013.71;;;29.41;46.88
24336;BME280;33098;52.400;16.880;2023-08-12T12:07:54;101004.53;;;29.45;47.01
24336;BME280;33098;52.400;16.880;2023-08-12T12:10:29;101004.17;;;29.54;46.95
24336;BME280;33098;52.400;16.880;2023-08-12T12:12:57;101000.96;;;29.64;46.74
24336;BME280;33098;52.400;16.880;2023-08-12T12:15:26;100996.40;;;29.87;46.55
24336;BME280;33098;52.400;16.880;2023-08-12T12:17:53;101001.70;;;30.09;46.21
24336;BME280;33098;52.400;16.880;2023-08-12T12:20:20;100997.23;;;30.37;45.70
24336;BME280;33098;52.400;16.880;2023-08-12T12:22:48;100993.96;;;30.68;45.74
24336;BME280;33098;52.400;16.880;2023-08-12T12:25:17;100993.73;;;30.89;45.56
24336;BME280;33098;52.400;16.880;2023-08-12T12:27:47;100994.06;;;31.05;45.30
24336;BME280;33098;52.400;16.880;2023-08-12T12:30:15;100990.10;;;31.21;44.83
24336;BME280;33098;52.400;16.880;2023-08-12T12:32:43;100988.63;;;31.18;44.53
24336;BME280;33098;52.400;16.880;2023-08-12T12:35:18;100988.21;;;31.01;44.79
24336;BME280;33098;52.400;16.880;2023-08-12T12:37:46;100989.48;;;31.02;44.43
24336;BME280;33098;52.400;16.880;2023-08-12T12:40:27;100992.42;;;31.13;44.25
24336;BME280;33098;52.400;16.880;2023-08-12T12:42:54;100991.23;;;31.13;43.36
24336;BME280;33098;52.400;16.880;2023-08-12T12:45:20;100983.96;;;31.00;43.08
24336;BME280;33098;52.400;16.880;2023-08-12T12:47:51;100979.86;;;30.77;43.71
24336;BME280;33098;52.400;16.880;2023-08-12T12:50:22;100979.95;;;30.57;44.12
24336;BME280;33098;52.400;16.880;2023-08-12T12:52:49;100976.60;;;30.47;44.43
24336;BME280;33098;52.400;16.880;2023-08-12T12:55:16;100973.79;;;30.58;44.46
24336;BME280;33098;52.400;16.880;2023-08-12T12:57:46;100972.24;;;30.78;44.22
24336;BME280;33098;52.400;16.880;2023-08-12T13:00:15;100963.55;;;31.10;44.15
24336;BME280;33098;52.400;16.880;2023-08-12T13:02:45;100959.77;;;31.34;43.93
24336;BME280;33098;52.400;16.880;2023-08-12T13:05:14;100955.34;;;31.73;43.63
24336;BME280;33098;52.400;16.880;2023-08-12T13:07:47;100948.24;;;31.87;43.19
24336;BME280;33098;52.400;16.880;2023-08-12T13:10:15;100946.53;;;31.94;42.76
24336;BME280;33098;52.400;16.880;2023-08-12T13:12:46;100943.86;;;31.92;42.52
24336;BME280;33098;52.400;16.880;2023-08-12T13:15:14;100946.34;;;32.34;42.70